createdAt,value
2023-03-10T00:04:11.201Z,97753.78
2023-03-10T00:09:13.145Z,97764.03
2023-03-10T00:14:15.185Z,97760.63
2023-03-10T00:19:17.074Z,97769.22
2023-03-10T00:24:18.970Z,97776.91
2023-03-10T00:29:21.061Z,97781.22
2023-03-10T00:34:23.041Z,97784.66
2023-03-10T00:39:25.085Z,97793.22
2023-03-10T00:44:26.965Z,97799.25
2023-03-10T00:49:28.853Z,97796.66
2023-03-10T00:54:30.773Z,97786.41
2023-03-10T00:59:47.834Z,97793.28
2023-03-10T01:04:51.742Z,97792.41
2023-03-10T01:09:53.665Z,97801.00
2023-03-10T01:14:55.576Z,97801.00
2023-03-10T01:19:57.578Z,97792.47
2023-03-10T01:24:59.479Z,97799.31
2023-03-10T01:30:01.369Z,97795.88
2023-03-10T01:35:05.814Z,97790.75
2023-03-10T01:40:08.496Z,97783.03
2023-03-10T01:45:11.343Z,97790.75
2023-03-10T01:50:15.390Z,97798.47
2023-03-10T01:55:21.421Z,97805.31
2023-03-10T02:00:26.544Z,97816.47
2023-03-10T02:05:28.587Z,97825.88
2023-03-10T02:10:30.595Z,97819.03
2023-03-10T02:15:33.427Z,97823.31
2023-03-10T02:20:41.370Z,97839.59
2023-03-10T02:25:49.228Z,97832.72
2023-03-10T02:30:51.154Z,97848.13
2023-03-10T02:35:53.207Z,97862.72
2023-03-10T02:40:55.219Z,97864.31
2023-03-10T02:45:59.253Z,97872.91
2023-03-10T02:51:02.006Z,97872.03
2023-03-10T02:56:04.196Z,97870.28
2023-03-10T03:01:06.356Z,97867.75
2023-03-10T03:06:08.649Z,97868.53
2023-03-10T03:11:10.545Z,97878.81
2023-03-10T03:16:12.546Z,97888.19
2023-03-10T03:21:14.704Z,97901.00
2023-03-10T03:26:18.459Z,97883.91
2023-03-10T03:31:22.485Z,97896.72
2023-03-10T03:36:24.393Z,97901.00
2023-03-10T03:41:26.431Z,97901.78
2023-03-10T03:46:28.459Z,97919.78
2023-03-10T03:51:30.481Z,97910.28
2023-03-10T03:56:32.473Z,97923.06
2023-03-10T04:01:34.402Z,97923.00
2023-03-10T04:06:36.361Z,97915.97
2023-03-10T04:11:38.291Z,97933.88
2023-03-10T04:16:41.082Z,97936.41
2023-03-10T04:21:43.360Z,97953.47
2023-03-10T04:26:45.744Z,97951.06
2023-03-10T04:32:02.703Z,97957.16
2023-03-10T04:37:06.632Z,97974.94
2023-03-10T04:42:08.427Z,97976.66
2023-03-10T04:47:10.266Z,97985.31
2023-03-10T04:52:12.174Z,97990.44
2023-03-10T04:57:13.985Z,97994.81
2023-03-10T05:02:15.909Z,97995.75
2023-03-10T05:07:17.786Z,98003.34
2023-03-10T05:12:19.769Z,98008.47
2023-03-10T05:17:21.655Z,98016.97
2023-03-10T05:22:23.680Z,98028.88
2023-03-10T05:27:25.608Z,98036.69
2023-03-10T05:32:27.552Z,98042.06
2023-03-10T05:37:29.378Z,98049.09
2023-03-10T05:42:31.353Z,98047.56
2023-03-10T05:47:33.287Z,98053.38
2023-03-10T05:52:39.144Z,98066.16
2023-03-10T05:57:41.038Z,98077.41
2023-03-10T06:02:42.958Z,98080.09
2023-03-10T06:07:44.838Z,98094.03
2023-03-10T06:12:46.695Z,98093.31
2023-03-10T06:17:48.501Z,98109.47
2023-03-10T06:22:51.436Z,98112.78
2023-03-10T06:27:53.293Z,98122.31
2023-03-10T06:32:55.141Z,98129.22
2023-03-10T06:37:57.065Z,98121.78
2023-03-10T06:42:58.941Z,98131.19
2023-03-10T06:48:00.846Z,98136.38
2023-03-10T06:53:02.692Z,98122.66
2023-03-10T06:58:04.563Z,98139.84
2023-03-10T07:03:06.407Z,98150.22
2023-03-10T07:08:08.349Z,98151.06
2023-03-10T07:13:10.687Z,98150.91
2023-03-10T07:18:13.097Z,98153.25
2023-03-10T07:23:15.106Z,98164.50
2023-03-10T07:28:16.982Z,98169.59
2023-03-10T07:33:18.886Z,98168.06
2023-03-10T07:38:20.850Z,98175.34
2023-03-10T07:43:22.754Z,98169.78
2023-03-10T07:48:24.682Z,98184.44
2023-03-10T07:53:26.714Z,98193.56
2023-03-10T07:58:28.663Z,98201.00
2023-03-10T08:03:30.594Z,98195.41
2023-03-10T08:08:32.514Z,98203.38
2023-03-10T08:13:34.366Z,98206.81
2023-03-10T08:18:36.673Z,98202.91
2023-03-10T08:23:39.292Z,98220.38
2023-03-10T08:28:41.115Z,98222.19
2023-03-10T08:33:43.370Z,98228.22
2023-03-10T08:38:45.534Z,98242.00
2023-03-10T08:43:49.255Z,98254.09
2023-03-10T08:48:51.607Z,98251.50
2023-03-10T08:53:53.546Z,98252.22
2023-03-10T08:58:55.542Z,98253.63
2023-03-10T09:03:57.410Z,98265.00
2023-03-10T09:08:59.307Z,98268.16
2023-03-10T09:14:02.033Z,98265.59
2023-03-10T09:19:03.944Z,98268.41
2023-03-10T09:24:06.012Z,98272.81
2023-03-10T09:29:07.895Z,98269.47
2023-03-10T09:34:09.848Z,98273.78
2023-03-10T09:39:11.638Z,98283.31
2023-03-10T09:44:29.088Z,98289.34
2023-03-10T09:49:35.957Z,98295.38
2023-03-10T09:54:44.480Z,98300.56
2023-03-10T09:59:46.371Z,98294.53
2023-03-10T10:04:48.449Z,98301.38
2023-03-10T10:10:04.544Z,98307.31
2023-03-10T10:15:24.877Z,98303.13
2023-03-10T10:20:33.591Z,98307.41
2023-03-10T10:25:37.086Z,98304.03
2023-03-10T10:30:39.607Z,98311.72
2023-03-10T10:35:46.663Z,98312.44
2023-03-10T10:41:05.788Z,98322.00
2023-03-10T10:46:09.135Z,98321.91
2023-03-10T10:51:33.416Z,98328.06
2023-03-10T10:56:35.326Z,98330.56
2023-03-10T11:01:56.920Z,98343.53
2023-03-10T11:07:15.657Z,98354.75
2023-03-10T11:12:25.843Z,98360.75
2023-03-10T11:17:39.798Z,98373.72
2023-03-10T11:22:46.624Z,98372.88
2023-03-10T11:27:49.792Z,98383.19
2023-03-10T11:33:00.654Z,98393.50
2023-03-10T11:38:23.991Z,98398.66
2023-03-10T11:43:47.003Z,98409.84
2023-03-10T11:49:07.403Z,98414.13
2023-03-10T11:54:27.040Z,98413.16
2023-03-10T11:59:29.832Z,98418.25
2023-03-10T12:04:37.514Z,98420.00
2023-03-10T12:09:40.748Z,98435.69
2023-03-10T12:14:43.638Z,98453.75
2023-03-10T12:20:10.465Z,98464.06
2023-03-10T12:25:30.373Z,98467.53
2023-03-10T12:31:10.408Z,98466.66
2023-03-10T12:36:27.469Z,98470.97
2023-03-10T12:41:49.532Z,98471.81
2023-03-10T12:47:15.611Z,98472.59
2023-03-10T12:52:36.565Z,98480.41
2023-03-10T12:57:41.406Z,98481.25
2023-03-10T13:02:52.591Z,98483.00
2023-03-10T13:07:58.902Z,98500.22
2023-03-10T13:13:05.976Z,98504.53
2023-03-10T13:18:16.289Z,98507.09
2023-03-10T13:23:25.017Z,98511.38
2023-03-10T13:28:28.784Z,98507.13
2023-03-10T13:33:32.216Z,98512.28
2023-03-10T13:38:42.504Z,98521.75
2023-03-10T13:43:45.744Z,98527.72
2023-03-10T13:48:47.822Z,98522.47
2023-03-10T13:53:51.987Z,98530.03
2023-03-10T13:58:55.798Z,98545.66
2023-03-10T14:03:58.458Z,98546.66
2023-03-10T14:09:18.238Z,98544.72
2023-03-10T14:14:30.057Z,98557.47
2023-03-10T14:19:45.209Z,98558.47
2023-03-10T14:24:47.106Z,98566.81
2023-03-10T14:29:50.786Z,98572.84
2023-03-10T14:34:52.862Z,98581.34
2023-03-10T14:39:55.018Z,98577.00
2023-03-10T14:44:58.969Z,98582.09
2023-03-10T14:50:01.465Z,98583.78
2023-03-10T14:55:07.098Z,98600.09
2023-03-10T15:00:19.880Z,98588.72
2023-03-10T15:05:25.951Z,98612.53
2023-03-10T15:10:29.515Z,98626.13
2023-03-10T15:15:43.435Z,98627.56
2023-03-10T15:20:45.556Z,98631.84
2023-03-10T15:25:47.634Z,98638.50
2023-03-10T15:30:49.637Z,98652.22
2023-03-10T15:35:52.225Z,98659.97
2023-03-10T15:40:53.910Z,98671.06
2023-03-10T15:45:56.044Z,98679.78
2023-03-10T15:50:58.580Z,98689.31
2023-03-10T15:56:05.747Z,98698.84
2023-03-10T16:01:11.939Z,98700.31
2023-03-10T16:06:13.939Z,98714.78
2023-03-10T16:11:18.010Z,98712.03
2023-03-10T16:16:20.428Z,98709.59
2023-03-10T16:21:22.335Z,98716.38
2023-03-10T16:26:24.295Z,98716.34
2023-03-10T16:31:26.511Z,98719.69
2023-03-10T16:36:29.351Z,98725.56
2023-03-10T16:41:31.193Z,98729.94
2023-03-10T16:46:33.766Z,98733.28
2023-03-10T16:51:36.566Z,98731.53
2023-03-10T16:56:48.865Z,98721.25
2023-03-10T17:01:50.865Z,98720.34
2023-03-10T17:06:52.819Z,98730.63
2023-03-10T17:11:55.602Z,98730.75
2023-03-10T17:16:58.334Z,98728.06
2023-03-10T17:22:00.321Z,98736.72
2023-03-10T17:27:02.361Z,98734.09
2023-03-10T17:32:05.855Z,98735.88
2023-03-10T17:37:07.786Z,98737.59
2023-03-10T17:42:09.734Z,98742.75
2023-03-10T17:47:11.596Z,98735.81
2023-03-10T17:52:13.559Z,98747.81
2023-03-10T17:57:16.783Z,98735.84
2023-03-10T18:02:18.840Z,98747.03
2023-03-10T18:07:20.851Z,98743.78
2023-03-10T18:12:22.711Z,98752.50
2023-03-10T18:17:24.562Z,98759.53
2023-03-10T18:22:26.404Z,98764.59
2023-03-10T18:27:29.187Z,98760.31
2023-03-10T18:32:32.263Z,98772.38
2023-03-10T18:37:34.193Z,98772.47
2023-03-10T18:42:36.094Z,98770.75
2023-03-10T18:47:37.980Z,98778.47
2023-03-10T18:52:40.786Z,98775.75
2023-03-10T18:57:45.189Z,98774.00
2023-03-10T19:02:47.129Z,98787.59
2023-03-10T19:07:49.127Z,98772.28
2023-03-10T19:12:51.158Z,98778.28
2023-03-10T19:17:53.295Z,98784.25
2023-03-10T19:22:55.338Z,98781.84
2023-03-10T19:27:57.231Z,98777.56
2023-03-10T19:32:59.282Z,98775.88
2023-03-10T19:38:01.244Z,98783.59
2023-03-10T19:43:03.389Z,98788.72
2023-03-10T19:48:05.541Z,98793.78
2023-03-10T19:53:07.498Z,98801.22
2023-03-10T19:58:09.383Z,98807.38
2023-03-10T20:03:11.355Z,98809.06
2023-03-10T20:08:13.428Z,98809.97
2023-03-10T20:13:15.320Z,98802.50
2023-03-10T20:18:17.221Z,98804.88
2023-03-10T20:23:19.141Z,98808.34
2023-03-10T20:28:21.075Z,98811.66
2023-03-10T20:33:22.990Z,98841.56
2023-03-10T20:38:24.879Z,98835.66
2023-03-10T20:43:26.851Z,98840.88
2023-03-10T20:48:28.777Z,98829.53
2023-03-10T20:53:31.789Z,98845.81
2023-03-10T20:58:33.763Z,98844.25
2023-03-10T21:03:35.733Z,98849.44
2023-03-10T21:08:37.742Z,98856.81
2023-03-10T21:13:39.720Z,98860.25
2023-03-10T21:18:41.761Z,98870.47
2023-03-10T21:23:43.704Z,98869.66
2023-03-10T21:28:45.824Z,98868.00
2023-03-10T21:33:47.894Z,98876.53
2023-03-10T21:38:50.340Z,98867.81
2023-03-10T21:43:56.551Z,98879.72
2023-03-10T21:48:58.512Z,98885.78
2023-03-10T21:54:00.639Z,98886.59
2023-03-10T21:59:02.583Z,98885.81
2023-03-10T22:04:04.581Z,98887.53
2023-03-10T22:09:06.447Z,98888.91
2023-03-10T22:14:08.368Z,98895.03
2023-03-10T22:19:10.347Z,98893.28
2023-03-10T22:24:13.882Z,98899.28
2023-03-10T22:29:15.904Z,98890.75
2023-03-10T22:34:17.777Z,98889.03
2023-03-10T22:39:19.711Z,98882.22
2023-03-10T22:44:21.599Z,98889.84
2023-03-10T22:49:23.526Z,98895.06
2023-03-10T22:54:25.555Z,98900.19
2023-03-10T22:59:27.458Z,98901.84
2023-03-10T23:04:32.588Z,98908.75
2023-03-10T23:09:34.796Z,98901.75
2023-03-10T23:14:36.830Z,98910.50
2023-03-10T23:19:38.828Z,98902.66
2023-03-10T23:24:40.693Z,98893.06
2023-03-10T23:29:42.785Z,98889.00
2023-03-10T23:34:44.883Z,98891.47
2023-03-10T23:39:46.854Z,98885.47
2023-03-10T23:44:48.837Z,98882.78
2023-03-10T23:49:51.057Z,98891.22
2023-03-10T23:54:53.806Z,98881.09
2023-03-10T23:59:55.994Z,98873.41
